• Join FlightAware (Why Join?)
  • Login
  • US Flag 
11:00AM EDT


 

Airport Tracker/Info


-or-


 

Live Flight TrackerFlight Track Log ✈ AMF1026 ✈ 07-May-2013 ✈ KALB - KCVG

Flight Track Log - Related Links

Times and Time Zones

All times are in EDT time to prevent confusion due to time zone crossing. See the AMF1026 flight status page for this flight to view local times or setup timezone preferences in your user account.

Time Position Orientation Groundspeed Altitude Reporting Facility
EDT Latitude Longitude Course Direction KTS MPH feet Rate Location/Type
08:41PM 42.7278 -73.8081 179° South 136 157 1,300  Level Boston Center
08:42PM 42.6778 -73.8069 179° South 185 213 3,000 1,500 Climbing Boston Center
08:43PM 42.6789 -73.8747 271° West 220 253 4,600 1,380 Climbing Boston Center
08:43PM 42.6911 -73.9089 296° West 220 253 5,200 1,260 Climbing Boston Center
08:44PM 42.7150 -73.9831 294° West 227 261 6,600 1,380 Climbing Boston Center
08:45PM 42.7389 -74.0628 292° West 227 261 8,000 1,500 Climbing Boston Center
08:46PM 42.7522 -74.1508 282° West 222 255 9,700 1,440 Climbing Boston Center
08:47PM 42.7572 -74.2272 275° West 222 255 10,900 1,260 Climbing Boston Center
08:48PM 42.7683 -74.3181 279° West 222 255 12,300 1,380 Climbing Boston Center
08:49PM 42.7775 -74.3892 280° West 217 250 13,700 1,200 Climbing Boston Center
08:50PM 42.7678 -74.4764 261° West 217 250 14,800 1,140 Climbing Boston Center
08:51PM 42.7436 -74.5408 243° Southwest 217 250 16,000 1,200 Climbing Boston Center
08:52PM 42.7172 -74.6189 245° Southwest 217 250 17,200 1,020 Climbing Boston Center
08:53PM 42.6992 -74.6833 249° West 217 250 18,100 900 Climbing Boston Center
08:54PM 42.6789 -74.7672 252° West 217 250 19,000 780 Climbing Boston Center
08:55PM 42.6606 -74.8400 251° West 217 250 19,700 480 Climbing Boston Center
08:56PM 42.6339 -74.9181 245° Southwest 223 257 20,000 120 Climbing Boston Center
08:57PM 42.5967 -74.9956 237° Southwest 240 276 20,000  Level Boston Center
08:58PM 42.5594 -75.0814 240° Southwest 254 292 20,000  Level Boston Center
09:00PM 42.4956 -75.2194 238° Southwest 271 312 20,000  Level New York Center
09:01PM 42.4569 -75.3067 239° Southwest 271 312 20,000  Level New York Center
09:02PM 42.4267 -75.3917 244° Southwest 263 303 20,000  Level New York Center
09:03PM 42.3961 -75.4792 245° Southwest 258 297 20,000  Level New York Center
09:04PM 42.3697 -75.5672 248° West 253 291 20,000  Level New York Center
09:05PM 42.3414 -75.6519 246° West 253 291 20,000  Level New York Center
09:06PM 42.3086 -75.7364 242° Southwest 253 291 20,000  Level New York Center
09:07PM 42.2719 -75.8206 240° Southwest 253 291 20,000  Level New York Center
09:08PM 42.2350 -75.9019 239° Southwest 258 297 20,000  Level New York Center
09:09PM 42.2022 -75.9861 242° Southwest 258 297 20,000  Level New York Center
09:10PM 42.1756 -76.0733 248° West 258 297 20,000  Level New York Center
09:11PM 42.1508 -76.1608 249° West 253 291 20,000  Level New York Center
09:12PM 42.1217 -76.2508 246° West 253 291 20,000  Level New York Center
09:13PM 42.0950 -76.3353 247° West 253 291 20,000  Level New York Center
09:14PM 42.0678 -76.4253 248° West 253 291 20,000  Level New York Center
09:15PM 42.0428 -76.5125 249° West 253 291 20,000  Level New York Center
09:16PM 42.0156 -76.6022 248° West 253 291 20,000  Level New York Center
09:17PM 41.9883 -76.6864 247° West 253 291 20,000  Level New York Center
09:18PM 41.9550 -76.7725 243° Southwest 253 291 20,000  Level New York Center
09:19PM 41.9239 -76.8533 243° Southwest 253 291 20,000  Level New York Center
09:20PM 41.8883 -76.9336 239° Southwest 253 291 20,000  Level New York Center
09:21PM 41.8508 -77.0167 239° Southwest 258 297 20,000  Level New York Center
09:22PM 41.8128 -77.1047 240° Southwest 258 297 20,000  Level New York Center
09:23PM 41.7750 -77.1875 239° Southwest 258 297 20,000  Level New York Center
09:24PM 41.7456 -77.2708 245° Southwest 258 297 20,000  Level New York Center
09:25PM 41.7075 -77.3561 239° Southwest 258 297 20,000  Level New York Center
09:27PM 41.6567 -77.5286 249° West 251 289 20,000  Level Cleveland Center
09:28PM 41.6300 -77.6217 249° West 258 297 20,000  Level Cleveland Center
09:29PM 41.6050 -77.7117 250° West 263 303 20,000  Level Cleveland Center
09:30PM 41.5761 -77.8017 247° West 263 303 20,000  Level Cleveland Center
09:31PM 41.5406 -77.8892 242° Southwest 268 308 20,000  Level Cleveland Center
09:32PM 41.5050 -77.9739 241° Southwest 268 308 20,000  Level Cleveland Center
09:33PM 41.4756 -78.0583 245° Southwest 268 308 20,000  Level Cleveland Center
09:34PM 41.4567 -78.1450 254° West 268 308 20,000  Level Cleveland Center
09:35PM 41.4336 -78.2400 252° West 268 308 20,000  Level Cleveland Center
09:36PM 41.4106 -78.3322 252° West 268 308 20,000  Level Cleveland Center
09:37PM 41.3831 -78.4272 249° West 268 308 20,000  Level Cleveland Center
09:38PM 41.3558 -78.5278 250° West 273 314 20,000  Level Cleveland Center
09:39PM 41.3283 -78.6200 248° West 273 314 20,000  Level Cleveland Center
09:40PM 41.2964 -78.7092 245° Southwest 273 314 20,000  Level Cleveland Center
09:41PM 41.2667 -78.7986 246° West 273 314 20,000  Level Cleveland Center
09:42PM 41.2303 -78.8881 242° Southwest 278 320 20,000  Level Cleveland Center
09:43PM 41.1942 -78.9744 241° Southwest 278 320 20,000  Level Cleveland Center
09:44PM 41.1578 -79.0608 241° Southwest 278 320 20,000  Level Cleveland Center
09:45PM 41.1256 -79.1525 245° Southwest 278 320 20,000  Level Cleveland Center
09:46PM 41.0956 -79.2550 249° West 283 326 20,000  Level Cleveland Center
09:47PM 41.0694 -79.3547 251° West 288 331 20,000  Level Cleveland Center
09:48PM 41.0433 -79.4517 250° West 288 331 20,000  Level Cleveland Center
09:49PM 41.0194 -79.5539 253° West 288 331 20,000  Level Cleveland Center
09:50PM 40.9911 -79.6561 250° West 288 331 20,000  Level Cleveland Center
09:51PM 40.9647 -79.7528 250° West 288 331 20,000  Level Cleveland Center
09:52PM 40.9319 -79.8492 246° West 288 331 20,000  Level Cleveland Center
09:53PM 40.9033 -79.9486 249° West 293 337 20,000  Level Cleveland Center
09:54PM 40.8789 -80.0475 252° West 293 337 20,000  Level Cleveland Center
09:55PM 40.8503 -80.1494 250° West 293 337 20,000  Level Cleveland Center
09:56PM 40.8150 -80.2431 244° Southwest 293 337 20,000  Level Cleveland Center
09:57PM 40.7694 -80.3281 235° Southwest 293 337 20,000  Level Cleveland Center
09:58PM 40.7278 -80.4050 234° Southwest 293 337 20,000  Level Cleveland Center
09:59PM 40.6800 -80.4928 234° Southwest 293 337 20,000  Level Cleveland Center
10:00PM 40.6322 -80.5914 237° Southwest 293 337 20,000  Level Cleveland Center
10:01PM 40.5883 -80.6733 235° Southwest 293 337 20,000  Level Cleveland Center
10:02PM 40.5422 -80.7581 234° Southwest 288 331 20,000  Level Cleveland Center
10:03PM 40.4922 -80.8397 231° Southwest 288 331 20,000  Level Cleveland Center
10:04PM 40.4481 -80.9158 233° Southwest 293 337 20,000  Level Cleveland Center
10:05PM 40.3978 -81.0003 232° Southwest 293 337 20,000  Level Cleveland Center
10:06PM 40.3494 -81.0844 233° Southwest 293 337 20,000  Level Cleveland Center
10:07PM 40.3033 -81.1711 235° Southwest 293 337 20,000  Level Cleveland Center
10:09PM 40.2158 -81.3303 234° Southwest 292 336 20,000  Level Indianapolis Center
10:10PM 40.1686 -81.4208 236° Southwest 298 343 20,000  Level Indianapolis Center
10:11PM 40.1214 -81.5092 235° Southwest 295 339 20,000  Level Indianapolis Center
10:12PM 40.0725 -81.5950 233° Southwest 291 335 20,000  Level Indianapolis Center
10:13PM 40.0247 -81.6831 235° Southwest 293 337 20,000  Level Indianapolis Center
10:14PM 39.9783 -81.7742 236° Southwest 299 344 20,000  Level Indianapolis Center
10:15PM 39.9358 -81.8653 239° Southwest 295 339 20,000  Level Indianapolis Center
10:16PM 39.8964 -81.9617 242° Southwest 300 345 20,000  Level Indianapolis Center
10:17PM 39.8578 -82.0578 242° Southwest 298 343 20,000  Level Indianapolis Center
10:18PM 39.8250 -82.1567 247° West 296 341 20,000  Level Indianapolis Center
10:19PM 39.7933 -82.2556 247° West 295 339 20,000  Level Indianapolis Center
10:20PM 39.7617 -82.3728 251° West 294 338 20,000  Level Indianapolis Center
10:21PM 39.7336 -82.4725 250° West 290 334 20,000  Level Indianapolis Center
10:22PM 39.7058 -82.5733 250° West 293 337 20,000  Level Indianapolis Center
10:23PM 39.6786 -82.6744 251° West 294 338 20,000 -300 Level Indianapolis Center
10:24PM 39.6514 -82.7764 251° West 295 339 19,400 -840 Descending Indianapolis Center
10:25PM 39.6208 -82.8842 250° West 314 361 18,300 -1,140 Descending Indianapolis Center
10:26PM 39.5936 -82.9889 251° West 306 352 17,100 -1,200 Descending Indianapolis Center
10:27PM 39.5631 -83.0925 249° West 305 351 15,900 -1,140 Descending Indianapolis Center
10:28PM 39.5356 -83.1933 251° West 297 342 14,900 -1,020 Descending Indianapolis Center
10:29PM 39.5083 -83.2914 250° West 289 333 13,900 -1,080 Descending Indianapolis Center
10:30PM 39.4828 -83.3867 251° West 281 323 12,800 -1,140 Descending Indianapolis Center
10:30PM 39.4722 -83.4283 252° West 277 319 12,300 -1,140 Descending Indianapolis Center
10:31PM 39.4572 -83.4811 250° West 275 316 11,700 -1,020 Descending Indianapolis Center
10:32PM 39.4383 -83.5483 250° West 274 315 11,000 -720 Descending Indianapolis Center
10:32PM 39.4292 -83.5742 245° Southwest 276 318 11,000 -600 Level Indianapolis Center
10:33PM 39.4128 -83.6372 251° West 263 303 10,400 -1,080 Descending Indianapolis Center
10:33PM 39.4019 -83.6639 242° Southwest 268 308 9,900 -1,380 Descending Indianapolis Center
10:34PM 39.3675 -83.7489 242° Southwest 264 304 8,600 -1,260 Descending Indianapolis Center
10:35PM 39.3336 -83.8314 242° Southwest 260 299 7,400 -1,140 Descending Indianapolis Center
10:36PM 39.3014 -83.9117 243° Southwest 255 293 6,300 -780 Descending Indianapolis Center
10:37PM 39.2644 -83.9897 239° Southwest 252 290 5,900 -180 Descending Indianapolis Center
10:38PM 39.2242 -84.0697 237° Southwest 258 297 6,000 -300 Climbing Indianapolis Center
10:39PM 39.1925 -84.1572 245° Southwest 263 303 5,400 -540 Descending Indianapolis Center
10:40PM 39.1694 -84.2450 251° West 259 298 5,000 -240 Descending Indianapolis Center
10:41PM 39.1442 -84.3319 249° West 257 296 5,000 -360 Level Indianapolis Center
10:42PM 39.1208 -84.4186 251° West 257 296 4,300 -720 Descending Indianapolis Center
10:43PM 39.1167 -84.4500 260° West 253 291 4,000 -660 Descending Cincinnati TRACON
10:44PM 39.1000 -84.5333 256° West 211 243 3,400 -780 Descending Cincinnati TRACON
10:45PM 39.1167 -84.6000 288° West 199 229 2,500 -900 Descending Cincinnati TRACON
10:46PM 39.1167 -84.6667 270° West 151 174 1,700 -720 Descending Cincinnati TRACON
10:47PM 39.0833 -84.6833 201° Southwest 120 138 1,100 -600 Descending Cincinnati TRACON
10:49PM 39.0488 -84.6678 247° West  Level Estimated